Time;durP1;ratioP1;P1;durP2;ratioP2;P2;SDS_P1;SDS_P2;PMS_P1;PMS_P2;Temp;Humidity;BMP_temperature;BMP_pressure;BME280_temperature;BME280_humidity;BME280_pressure;Samples;Min_cycle;Max_cycle;Signal;HPM_P1;HPM_P2
2023/06/24 00:02:06;;;;;;;14.37;9.80;;;16.00;83.20;;;;;;4973818;28;20349;-69
2023/06/24 00:04:32;;;;;;;12.13;10.03;;;16.00;83.00;;;;;;4976618;28;20721;-69
2023/06/24 00:06:59;;;;;;;15.03;10.57;;;16.00;82.90;;;;;;4972822;28;20050;-69
2023/06/24 00:09:28;;;;;;;14.53;10.70;;;15.90;83.10;;;;;;4977488;28;20103;-69
2023/06/24 00:11:55;;;;;;;13.30;10.10;;;15.90;83.10;;;;;;4975615;28;20806;-69
2023/06/24 00:14:23;;;;;;;14.03;10.90;;;15.90;83.20;;;;;;4960045;28;20282;-69
2023/06/24 00:16:53;;;;;;;13.73;10.30;;;15.90;83.10;;;;;;4966837;28;20305;-69
2023/06/24 00:19:24;;;;;;;12.70;10.23;;;15.80;83.60;;;;;;4989263;28;20296;-69
2023/06/24 00:21:51;;;;;;;13.93;10.57;;;15.80;83.40;;;;;;4971270;28;20285;-69
2023/06/24 00:24:19;;;;;;;15.03;10.43;;;15.80;83.40;;;;;;4978921;28;20290;-69
2023/06/24 00:26:47;;;;;;;14.80;11.10;;;15.80;83.60;;;;;;4972273;28;20378;-69
2023/06/24 00:29:14;;;;;;;13.67;11.03;;;15.80;83.60;;;;;;4957574;28;20294;-69
2023/06/24 00:31:40;;;;;;;12.90;10.27;;;15.80;84.00;;;;;;4959882;28;20296;-69
2023/06/24 00:34:07;;;;;;;15.33;11.43;;;15.70;84.30;;;;;;4975123;28;20412;-69
2023/06/24 00:36:34;;;;;;;15.77;11.33;;;15.70;84.20;;;;;;4981532;28;20046;-69
2023/06/24 00:39:03;;;;;;;14.47;10.93;;;15.70;84.60;;;;;;4977288;28;20285;-69
2023/06/24 00:41:30;;;;;;;14.13;10.80;;;15.60;84.70;;;;;;4984819;28;20286;-69
2023/06/24 00:43:57;;;;;;;13.47;11.63;;;15.60;84.90;;;;;;4981509;28;20290;-69
2023/06/24 00:46:26;;;;;;;15.37;12.13;;;15.60;85.20;;;;;;4975839;28;20294;-69
2023/06/24 00:48:56;;;;;;;13.77;11.90;;;15.60;85.40;;;;;;4972299;28;20294;-69
2023/06/24 00:51:26;;;;;;;15.23;11.73;;;15.60;86.30;;;;;;4972667;28;20329;-69
2023/06/24 00:53:55;;;;;;;18.23;12.80;;;15.50;85.90;;;;;;4972252;28;20348;-69
2023/06/24 00:56:23;;;;;;;17.43;12.13;;;15.50;86.20;;;;;;4972861;28;20350;-69
2023/06/24 00:58:50;;;;;;;16.00;12.23;;;15.50;85.90;;;;;;4974373;28;20286;-69
2023/06/24 01:01:16;;;;;;;15.67;11.37;;;15.50;86.00;;;;;;4978488;28;20355;-69
2023/06/24 01:03:42;;;;;;;14.93;11.67;;;15.40;86.20;;;;;;4971344;28;20798;-69
2023/06/24 01:06:09;;;;;;;15.83;11.93;;;15.40;86.30;;;;;;4981394;28;20308;-69
2023/06/24 01:08:35;;;;;;;16.87;11.17;;;15.40;87.30;;;;;;4994644;28;20406;-69
2023/06/24 01:11:01;;;;;;;18.30;11.80;;;15.40;86.70;;;;;;5001213;28;20282;-69
2023/06/24 01:13:27;;;;;;;17.07;12.00;;;15.40;86.90;;;;;;4981151;28;20514;-69
2023/06/24 01:15:53;;;;;;;14.97;11.57;;;15.40;86.80;;;;;;4978395;28;20130;-69
2023/06/24 01:19:00;;;;;;;15.17;11.67;;;15.30;87.60;;;;;;4957891;28;20462;-69
2023/06/24 01:21:57;;;;;;;15.93;11.70;;;15.30;87.10;;;;;;4984320;28;20437;-69
2023/06/24 01:24:44;;;;;;;13.37;11.23;;;15.30;87.00;;;;;;4965855;28;20289;-69
2023/06/24 01:27:48;;;;;;;15.33;10.97;;;15.30;87.00;;;;;;4971272;28;20290;-69
2023/06/24 01:30:41;;;;;;;15.50;12.07;;;15.20;87.70;;;;;;4950355;28;20302;-69
2023/06/24 01:33:10;;;;;;;19.27;12.03;;;15.20;87.60;;;;;;4986664;28;20325;-69
2023/06/24 01:35:37;;;;;;;14.10;11.80;;;15.20;87.30;;;;;;4991926;28;20306;-69
2023/06/24 01:38:26;;;;;;;15.63;12.47;;;15.10;87.00;;;;;;4971049;28;20286;-69
2023/06/24 01:40:54;;;;;;;15.07;12.23;;;15.10;87.70;;;;;;4988147;28;20313;-69
2023/06/24 01:43:23;;;;;;;17.40;12.33;;;15.00;87.80;;;;;;4973953;28;20705;-69
2023/06/24 01:45:52;;;;;;;17.10;12.10;;;15.00;87.90;;;;;;4971090;28;20690;-69
2023/06/24 01:48:27;;;;;;;14.30;11.73;;;15.00;87.90;;;;;;4958048;28;20298;-69
2023/06/24 01:51:04;;;;;;;16.20;12.63;;;15.00;87.80;;;;;;4997069;28;20329;-69
2023/06/24 01:53:42;;;;;;;16.73;12.50;;;14.90;87.60;;;;;;4982044;28;20277;-69
2023/06/24 01:56:12;;;;;;;16.90;11.90;;;14.90;87.40;;;;;;4976539;28;20341;-69
2023/06/24 01:58:40;;;;;;;14.73;11.83;;;14.80;87.70;;;;;;4984293;28;20281;-69
2023/06/24 02:01:07;;;;;;;15.27;11.90;;;14.80;87.70;;;;;;4984265;28;20341;-69
2023/06/24 02:03:34;;;;;;;18.30;12.47;;;14.80;87.90;;;;;;4984364;28;20401;-69
2023/06/24 02:06:01;;;;;;;17.13;12.33;;;14.80;87.90;;;;;;4987714;28;20889;-69
2023/06/24 02:08:31;;;;;;;15.70;12.83;;;14.70;87.80;;;;;;4964253;28;20332;-69
2023/06/24 02:10:59;;;;;;;20.23;13.10;;;14.70;88.10;;;;;;4991774;28;20285;-69
2023/06/24 02:13:26;;;;;;;17.07;12.57;;;14.70;88.30;;;;;;4957283;28;20274;-69
2023/06/24 02:15:53;;;;;;;15.47;12.50;;;14.60;88.90;;;;;;4964240;28;20302;-69
2023/06/24 02:18:22;;;;;;;16.77;12.53;;;14.60;88.70;;;;;;4974711;28;20279;-69
2023/06/24 02:20:49;;;;;;;14.60;12.37;;;14.60;89.10;;;;;;4981233;28;20277;-69
2023/06/24 02:23:15;;;;;;;15.60;12.60;;;14.60;88.90;;;;;;4975329;28;20292;-69
2023/06/24 02:25:42;;;;;;;20.60;12.87;;;14.50;88.90;;;;;;5004005;28;20368;-69
2023/06/24 02:28:09;;;;;;;18.27;12.73;;;14.50;88.70;;;;;;4981949;28;20778;-69
2023/06/24 02:30:37;;;;;;;18.57;12.50;;;14.50;89.00;;;;;;4973654;28;20345;-69
2023/06/24 02:33:03;;;;;;;15.63;12.53;;;14.50;89.60;;;;;;4974052;28;20292;-69
2023/06/24 02:35:29;;;;;;;20.20;13.00;;;14.40;89.20;;;;;;4973661;28;20876;-69
2023/06/24 02:37:55;;;;;;;16.80;13.30;;;14.40;89.30;;;;;;4974186;28;20281;-69
2023/06/24 02:40:20;;;;;;;14.87;12.23;;;14.40;89.30;;;;;;4989477;28;20035;-69
2023/06/24 02:42:46;;;;;;;17.07;12.63;;;14.40;89.70;;;;;;4975624;28;20080;-69
2023/06/24 02:45:12;;;;;;;15.67;12.47;;;14.40;89.80;;;;;;4974052;28;20047;-68
2023/06/24 02:47:41;;;;;;;15.87;12.43;;;14.40;90.20;;;;;;4977794;28;20125;-68
2023/06/24 02:50:08;;;;;;;16.70;13.37;;;14.40;90.40;;;;;;4971942;28;20286;-68
2023/06/24 02:52:36;;;;;;;16.23;12.50;;;14.40;90.50;;;;;;4972191;28;20290;-68
2023/06/24 02:55:02;;;;;;;17.33;13.13;;;14.30;90.70;;;;;;4962596;28;20349;-68
2023/06/24 02:57:29;;;;;;;15.77;12.33;;;14.30;90.90;;;;;;4960030;28;20313;-68
2023/06/24 02:59:55;;;;;;;15.67;12.40;;;14.30;90.70;;;;;;4983274;28;20294;-68
2023/06/24 03:02:22;;;;;;;16.07;12.63;;;14.30;90.50;;;;;;4979219;28;20340;-68
2023/06/24 03:04:50;;;;;;;18.90;13.07;;;14.40;91.30;;;;;;4975746;28;20098;-68
2023/06/24 03:07:20;;;;;;;15.37;12.23;;;14.40;91.30;;;;;;4976399;28;20323;-68
2023/06/24 03:09:46;;;;;;;16.87;12.63;;;14.40;90.60;;;;;;4960044;28;20350;-68
2023/06/24 03:12:12;;;;;;;16.03;12.27;;;14.40;90.50;;;;;;4970009;28;20318;-68
2023/06/24 03:14:38;;;;;;;21.50;13.40;;;14.40;91.10;;;;;;4964349;28;20501;-68
2023/06/24 03:17:04;;;;;;;19.13;12.83;;;14.40;90.60;;;;;;4956986;28;20043;-68
2023/06/24 03:19:29;;;;;;;18.77;12.97;;;14.40;90.80;;;;;;4973652;28;20043;-68
2023/06/24 03:21:55;;;;;;;17.07;12.93;;;14.40;90.80;;;;;;4991441;28;20049;-68
2023/06/24 03:24:21;;;;;;;16.50;12.63;;;14.40;90.90;;;;;;4973820;28;20038;-68
2023/06/24 03:26:46;;;;;;;15.17;12.53;;;14.40;90.70;;;;;;4974233;28;20042;-68
2023/06/24 03:29:12;;;;;;;16.83;12.93;;;14.40;90.70;;;;;;4973802;28;20538;-68
2023/06/24 03:31:43;;;;;;;17.73;12.53;;;14.40;91.10;;;;;;4993600;28;20046;-68
2023/06/24 03:34:10;;;;;;;17.30;13.27;;;14.40;91.10;;;;;;4975545;28;20113;-68
2023/06/24 03:36:38;;;;;;;15.97;11.93;;;14.50;91.30;;;;;;4998389;28;20312;-69
2023/06/24 03:39:05;;;;;;;14.53;12.10;;;14.50;91.30;;;;;;4979957;28;20864;-69
2023/06/24 03:41:30;;;;;;;15.57;11.70;;;14.50;91.00;;;;;;4959201;28;20289;-69
2023/06/24 03:43:56;;;;;;;15.77;12.37;;;14.50;90.70;;;;;;4991590;28;20286;-69
2023/06/24 03:46:22;;;;;;;17.77;13.50;;;14.50;91.00;;;;;;4971651;28;20045;-69
2023/06/24 03:48:49;;;;;;;18.40;12.50;;;14.50;91.40;;;;;;4990519;28;20066;-69
2023/06/24 03:51:15;;;;;;;14.37;11.33;;;14.60;91.30;;;;;;4976361;28;20090;-69
2023/06/24 03:53:41;;;;;;;16.77;12.07;;;14.60;91.10;;;;;;4976623;28;20322;-69
2023/06/24 03:56:06;;;;;;;17.80;12.07;;;14.70;90.90;;;;;;4987203;28;20530;-69
2023/06/24 03:58:32;;;;;;;19.37;12.87;;;14.70;91.30;;;;;;4969905;28;20057;-69
2023/06/24 04:01:01;;;;;;;17.13;12.50;;;14.80;90.70;;;;;;4976016;28;20050;-69
2023/06/24 04:03:28;;;;;;;14.73;12.17;;;14.80;90.80;;;;;;4978593;28;20118;-69
2023/06/24 04:05:55;;;;;;;16.20;11.87;;;14.90;90.80;;;;;;4975729;28;20317;-69
2023/06/24 04:08:21;;;;;;;17.83;12.77;;;14.90;90.50;;;;;;4969947;28;20337;-69
2023/06/24 04:10:47;;;;;;;17.17;12.43;;;15.00;90.70;;;;;;4979205;28;20727;-69
2023/06/24 04:13:13;;;;;;;16.07;12.80;;;15.10;90.50;;;;;;4971734;28;20329;-69
2023/06/24 04:15:39;;;;;;;16.83;12.40;;;15.10;90.50;;;;;;4973286;28;20109;-69
2023/06/24 04:18:04;;;;;;;14.83;11.67;;;15.20;90.10;;;;;;4970814;28;20121;-69
2023/06/24 04:20:30;;;;;;;15.73;12.40;;;15.30;90.10;;;;;;4974383;28;20042;-69
2023/06/24 04:22:58;;;;;;;18.83;12.20;;;15.30;90.00;;;;;;4989858;28;20125;-69
2023/06/24 04:25:24;;;;;;;16.63;12.43;;;15.40;89.70;;;;;;4969701;28;20046;-69
2023/06/24 04:27:49;;;;;;;18.07;13.00;;;15.40;89.50;;;;;;4975222;28;20321;-69
2023/06/24 04:30:15;;;;;;;15.43;11.87;;;15.50;89.40;;;;;;4973219;28;20098;-69
2023/06/24 04:32:41;;;;;;;16.33;12.43;;;15.60;89.30;;;;;;4974428;28;20038;-69
2023/06/24 04:35:07;;;;;;;19.37;13.30;;;15.70;89.40;;;;;;4957763;28;20041;-69
2023/06/24 04:37:33;;;;;;;17.73;12.53;;;15.90;90.10;;;;;;4974027;28;20058;-69
2023/06/24 04:39:58;;;;;;;16.23;12.60;;;16.40;90.00;;;;;;4976056;28;20278;-69
2023/06/24 04:42:24;;;;;;;16.53;12.57;;;17.10;89.20;;;;;;4974550;28;20038;-69
2023/06/24 04:44:52;;;;;;;15.90;12.27;;;17.80;87.10;;;;;;4975735;28;20050;-69
2023/06/24 04:47:18;;;;;;;16.57;12.83;;;18.40;84.80;;;;;;4960650;28;20038;-69
2023/06/24 04:49:44;;;;;;;17.47;12.63;;;18.70;83.90;;;;;;4975272;28;20647;-69
2023/06/24 04:52:11;;;;;;;19.40;12.43;;;19.20;82.00;;;;;;4968395;28;20309;-69
2023/06/24 04:54:37;;;;;;;16.03;12.83;;;19.60;79.60;;;;;;4975514;28;20147;-69
2023/06/24 04:57:08;;;;;;;16.47;12.40;;;20.00;78.70;;;;;;4969572;28;20305;-70
2023/06/24 04:59:33;;;;;;;14.30;12.07;;;20.40;76.30;;;;;;4976971;28;20046;-69
2023/06/24 05:01:59;;;;;;;16.60;12.03;;;21.00;74.80;;;;;;4982810;28;20791;-69
2023/06/24 05:04:25;;;;;;;13.50;12.07;;;21.40;73.40;;;;;;5000508;28;20078;-69
2023/06/24 05:06:51;;;;;;;15.13;12.30;;;22.00;72.30;;;;;;4974233;28;20047;-69
2023/06/24 05:09:17;;;;;;;13.50;11.27;;;22.50;70.40;;;;;;4989068;28;20047;-69
2023/06/24 05:11:43;;;;;;;14.60;12.10;;;22.90;68.80;;;;;;4957727;28;20092;-69
2023/06/24 05:14:08;;;;;;;17.60;11.93;;;23.40;67.60;;;;;;4972410;28;20081;-69
2023/06/24 05:16:34;;;;;;;14.00;11.40;;;23.70;65.70;;;;;;4957304;28;20098;-69
2023/06/24 05:19:00;;;;;;;15.23;11.20;;;23.90;64.70;;;;;;4973707;28;20506;-69
2023/06/24 05:21:25;;;;;;;15.30;11.47;;;24.20;63.60;;;;;;4973091;28;20118;-69
2023/06/24 05:23:51;;;;;;;12.50;11.03;;;24.50;62.90;;;;;;4967082;28;20331;-69
2023/06/24 05:26:17;;;;;;;13.80;11.00;;;24.70;62.00;;;;;;4972016;28;20053;-69
2023/06/24 05:28:42;;;;;;;13.77;10.63;;;25.00;61.30;;;;;;4968647;28;20514;-69
2023/06/24 05:31:08;;;;;;;12.47;10.47;;;25.20;61.00;;;;;;4974269;28;20046;-69
2023/06/24 05:33:34;;;;;;;16.80;11.03;;;25.50;60.60;;;;;;4975867;28;20054;-69
2023/06/24 05:35:59;;;;;;;12.43;10.37;;;25.70;60.20;;;;;;4987234;28;20047;-69
2023/06/24 05:38:25;;;;;;;12.73;10.47;;;25.90;59.70;;;;;;5005287;28;20509;-69
2023/06/24 05:40:51;;;;;;;13.60;10.67;;;26.30;58.70;;;;;;4979151;28;20098;-69
2023/06/24 05:43:19;;;;;;;12.50;9.97;;;26.60;57.90;;;;;;4974416;28;20035;-69
2023/06/24 05:45:45;;;;;;;12.87;10.57;;;27.00;56.90;;;;;;4957371;28;20479;-69
2023/06/24 05:48:10;;;;;;;13.43;10.57;;;27.00;56.80;;;;;;4977478;28;20053;-69
2023/06/24 05:50:36;;;;;;;14.63;11.20;;;26.90;56.40;;;;;;4961652;28;20047;-69
2023/06/24 05:53:02;;;;;;;14.47;10.57;;;26.30;57.30;;;;;;4970427;28;20050;-69
2023/06/24 05:55:28;;;;;;;12.53;11.00;;;26.00;58.10;;;;;;4978093;28;20101;-69
2023/06/24 05:57:53;;;;;;;13.53;11.43;;;25.40;59.50;;;;;;4972708;28;20411;-70
2023/06/24 06:00:19;;;;;;;13.87;12.00;;;24.80;61.30;;;;;;4973591;28;20043;-70
2023/06/24 06:02:45;;;;;;;14.80;11.77;;;24.30;62.70;;;;;;4987724;28;20459;-70
2023/06/24 06:05:10;;;;;;;12.80;10.93;;;23.90;64.20;;;;;;4982536;28;20054;-70
2023/06/24 06:07:39;;;;;;;14.30;11.10;;;23.60;65.30;;;;;;4987090;28;20054;-70
2023/06/24 06:10:06;;;;;;;13.27;10.53;;;23.30;66.30;;;;;;5003229;28;20538;-70
2023/06/24 06:12:31;;;;;;;12.73;11.40;;;23.20;67.30;;;;;;4976569;28;20147;-70
2023/06/24 06:14:57;;;;;;;12.00;10.27;;;23.10;68.00;;;;;;4972930;28;20132;-70
2023/06/24 06:17:23;;;;;;;15.37;11.00;;;23.10;68.40;;;;;;4976468;28;20039;-70
2023/06/24 06:19:49;;;;;;;16.73;11.50;;;23.20;68.80;;;;;;4992373;28;20041;-70
2023/06/24 06:22:15;;;;;;;11.70;10.33;;;23.10;69.20;;;;;;4968640;28;20064;-70
2023/06/24 06:24:41;;;;;;;15.10;11.33;;;23.20;69.70;;;;;;4966415;28;20035;-70
2023/06/24 06:27:11;;;;;;;12.50;10.87;;;23.30;69.70;;;;;;4975699;28;20060;-70
2023/06/24 06:29:37;;;;;;;16.57;12.03;;;23.30;69.40;;;;;;4978569;28;20090;-70
2023/06/24 06:32:03;;;;;;;13.57;10.87;;;23.30;69.50;;;;;;4959146;28;20798;-70
2023/06/24 06:34:29;;;;;;;14.37;11.70;;;23.30;69.50;;;;;;4994821;28;20073;-70
2023/06/24 06:36:54;;;;;;;12.03;10.83;;;23.30;69.40;;;;;;4981069;28;20069;-70
2023/06/24 06:39:21;;;;;;;13.43;11.30;;;23.40;69.90;;;;;;4974614;28;20621;-70
2023/06/24 06:41:47;;;;;;;15.83;10.53;;;23.40;69.80;;;;;;4977530;28;20101;-70
2023/06/24 06:44:13;;;;;;;13.97;11.10;;;23.50;69.70;;;;;;4993843;28;20102;-70
2023/06/24 06:46:38;;;;;;;14.70;11.60;;;23.50;69.70;;;;;;4975086;28;20051;-70
2023/06/24 06:49:04;;;;;;;13.03;10.83;;;23.50;70.00;;;;;;4971914;28;20096;-70
2023/06/24 06:51:30;;;;;;;12.33;10.70;;;23.50;69.90;;;;;;4993277;28;20494;-70
2023/06/24 06:53:55;;;;;;;14.07;10.47;;;23.40;70.20;;;;;;4958042;28;20046;-70
2023/06/24 06:56:25;;;;;;;13.97;11.13;;;23.50;70.20;;;;;;4965115;28;20074;-70
2023/06/24 06:58:54;;;;;;;12.77;10.10;;;23.50;69.90;;;;;;4989079;28;20038;-70
2023/06/24 07:01:20;;;;;;;12.00;9.93;;;23.40;70.30;;;;;;4968590;28;20103;-70
2023/06/24 07:03:46;;;;;;;14.20;10.70;;;23.40;70.10;;;;;;4993451;28;20070;-71
2023/06/24 07:06:11;;;;;;;11.73;10.13;;;23.30;70.60;;;;;;4976557;28;20121;-70
2023/06/24 07:08:37;;;;;;;15.83;10.57;;;23.40;71.10;;;;;;4976687;28;20089;-71
2023/06/24 07:11:03;;;;;;;13.00;9.93;;;23.60;70.70;;;;;;4976610;28;20074;-70
2023/06/24 07:13:29;;;;;;;11.83;10.13;;;23.70;69.90;;;;;;4961314;28;20102;-71
2023/06/24 07:15:54;;;;;;;15.30;10.23;;;23.60;69.80;;;;;;4974761;28;20629;-69
2023/06/24 07:18:20;;;;;;;12.90;10.63;;;23.70;70.20;;;;;;4974284;28;20046;-71
2023/06/24 07:20:46;;;;;;;12.90;10.00;;;23.70;70.40;;;;;;4979074;28;20042;-71
2023/06/24 07:23:12;;;;;;;11.43;9.50;;;23.80;70.30;;;;;;4962284;28;20070;-70
2023/06/24 07:25:37;;;;;;;13.37;9.77;;;23.90;69.90;;;;;;4981609;28;20050;-71
2023/06/24 07:28:04;;;;;;;14.10;9.23;;;23.90;70.00;;;;;;4970961;28;20039;-71
2023/06/24 07:30:29;;;;;;;12.13;9.27;;;24.10;70.20;;;;;;4966876;28;20117;-70
2023/06/24 07:32:55;;;;;;;11.67;8.40;;;24.20;69.50;;;;;;4965018;28;20538;-70
2023/06/24 07:35:21;;;;;;;11.80;9.20;;;24.30;69.40;;;;;;4981013;28;20134;-70
2023/06/24 07:37:46;;;;;;;12.27;8.63;;;24.30;68.50;;;;;;4979725;28;20066;-70
2023/06/24 07:40:14;;;;;;;10.83;8.73;;;24.40;68.40;;;;;;4987467;28;20047;-70
2023/06/24 07:42:41;;;;;;;8.50;6.73;;;24.40;67.90;;;;;;4976639;28;20070;-70
2023/06/24 07:45:07;;;;;;;6.77;4.93;;;24.50;68.30;;;;;;4962500;28;20050;-70
2023/06/24 07:47:33;;;;;;;6.43;5.10;;;24.60;66.90;;;;;;4983203;28;20133;-70
2023/06/24 07:49:58;;;;;;;7.10;4.93;;;24.80;65.90;;;;;;4994591;28;20713;-70
2023/06/24 07:52:24;;;;;;;7.83;4.90;;;24.90;64.90;;;;;;4975975;28;20467;-70
2023/06/24 07:54:50;;;;;;;8.37;5.07;;;25.00;64.00;;;;;;4968009;28;20043;-70
2023/06/24 07:57:15;;;;;;;8.50;4.90;;;25.10;63.60;;;;;;4988541;28;20549;-70
2023/06/24 07:59:43;;;;;;;6.30;4.63;;;25.20;63.60;;;;;;4976744;28;20041;-71
2023/06/24 08:02:08;;;;;;;8.17;4.90;;;25.40;64.30;;;;;;4972722;28;20035;-70
2023/06/24 08:04:34;;;;;;;8.03;4.93;;;25.60;64.00;;;;;;4974818;28;20031;-69
2023/06/24 08:07:00;;;;;;;8.63;5.40;;;25.90;63.60;;;;;;4974245;28;20105;-71
2023/06/24 08:09:26;;;;;;;7.17;5.13;;;26.00;62.10;;;;;;4971966;28;20109;-70
2023/06/24 08:11:51;;;;;;;7.90;5.83;;;26.10;61.80;;;;;;4975541;28;20047;-70
2023/06/24 08:14:17;;;;;;;6.23;4.97;;;26.20;60.80;;;;;;4975211;28;20102;-70
2023/06/24 08:16:43;;;;;;;6.43;5.23;;;26.40;60.50;;;;;;4977693;28;20045;-71
2023/06/24 08:19:09;;;;;;;7.00;4.80;;;26.50;59.90;;;;;;4958457;28;20034;-71
2023/06/24 08:21:34;;;;;;;8.63;5.40;;;26.70;59.30;;;;;;4972651;28;20031;-71
2023/06/24 08:24:00;;;;;;;8.57;4.90;;;26.90;58.70;;;;;;4984456;28;20047;-70
2023/06/24 08:26:26;;;;;;;7.43;5.50;;;27.10;58.70;;;;;;4966748;28;20039;-70
2023/06/24 08:28:51;;;;;;;7.10;5.43;;;27.00;57.70;;;;;;4957951;28;20075;-70
2023/06/24 08:31:17;;;;;;;7.60;5.43;;;26.90;57.80;;;;;;4961934;28;20042;-71
2023/06/24 08:33:46;;;;;;;8.13;6.10;;;26.80;57.90;;;;;;4969167;28;20153;-70
2023/06/24 08:36:11;;;;;;;7.93;5.50;;;26.70;58.00;;;;;;4955134;28;20521;-70
2023/06/24 08:38:37;;;;;;;9.57;5.53;;;26.70;56.20;;;;;;4971712;28;20185;-70
2023/06/24 08:41:03;;;;;;;11.30;6.33;;;26.60;57.40;;;;;;4967529;28;20050;-70
2023/06/24 08:43:28;;;;;;;8.33;5.70;;;26.50;57.70;;;;;;4970319;28;20394;-71
2023/06/24 08:45:54;;;;;;;8.80;5.30;;;26.30;58.20;;;;;;4985962;28;20039;-70
2023/06/24 08:48:21;;;;;;;7.73;5.30;;;26.20;58.60;;;;;;4957275;28;20046;-71
2023/06/24 08:50:51;;;;;;;8.97;5.33;;;26.30;58.90;;;;;;4985574;28;20047;-71
2023/06/24 08:53:18;;;;;;;6.90;5.30;;;26.30;58.40;;;;;;4971497;28;20049;-71
2023/06/24 08:55:46;;;;;;;6.80;4.80;;;26.30;58.10;;;;;;4970817;28;20046;-71
2023/06/24 08:58:12;;;;;;;7.27;4.70;;;26.20;58.30;;;;;;4972078;28;20030;-70
2023/06/24 09:00:38;;;;;;;6.03;4.13;;;26.30;57.00;;;;;;4964028;28;20034;-71
2023/06/24 09:03:04;;;;;;;13.27;4.63;;;26.40;58.30;;;;;;4976916;28;20090;-71
2023/06/24 09:05:29;;;;;;;6.40;4.93;;;26.60;57.70;;;;;;4977240;28;20047;-70
2023/06/24 09:07:56;;;;;;;7.03;5.10;;;26.90;55.70;;;;;;4953934;28;20299;-70
2023/06/24 09:10:35;;;;;;;8.40;4.40;;;26.90;54.60;;;;;;4979409;28;20043;-70
2023/06/24 09:13:05;;;;;;;6.90;4.47;;;26.90;54.80;;;;;;4969601;28;20108;-70
2023/06/24 09:15:35;;;;;;;8.13;4.37;;;27.00;53.90;;;;;;4965416;28;20384;-70
2023/06/24 09:18:03;;;;;;;7.97;4.70;;;26.90;53.70;;;;;;4953371;28;20065;-70
2023/06/24 09:20:31;;;;;;;7.23;4.00;;;26.80;53.60;;;;;;4984913;28;20035;-70
2023/06/24 09:23:03;;;;;;;7.67;4.30;;;26.70;53.50;;;;;;4965544;28;20458;-70
2023/06/24 09:25:29;;;;;;;6.80;4.73;;;26.60;54.10;;;;;;4983659;28;20051;-70
2023/06/24 09:28:00;;;;;;;6.70;4.40;;;26.50;54.30;;;;;;4975400;28;20101;-70
2023/06/24 09:30:25;;;;;;;5.90;4.33;;;26.50;54.80;;;;;;4968299;28;20714;-70
2023/06/24 09:32:53;;;;;;;7.67;4.50;;;26.50;55.00;;;;;;4968940;28;20118;-70
2023/06/24 09:35:21;;;;;;;5.97;4.50;;;26.60;54.80;;;;;;4968639;28;20664;-70
2023/06/24 09:37:55;;;;;;;6.60;4.60;;;26.70;54.50;;;;;;4969248;28;20105;-70
2023/06/24 09:40:21;;;;;;;10.23;5.75;;;26.90;55.00;;;;;;4971288;28;20042;-70
2023/06/24 09:42:57;;;;;;;6.70;4.83;;;27.10;55.00;;;;;;4985858;28;20147;-70
2023/06/24 09:45:28;;;;;;;7.43;5.30;;;27.10;54.50;;;;;;4955844;28;20542;-70
2023/06/24 09:47:54;;;;;;;6.50;4.33;;;27.20;55.10;;;;;;4985680;28;20063;-70
2023/06/24 09:50:21;;;;;;;7.97;5.10;;;27.40;54.50;;;;;;4983038;28;20445;-70
2023/06/24 09:52:48;;;;;;;9.80;5.60;;;27.50;53.50;;;;;;4971892;28;20038;-70
2023/06/24 09:55:16;;;;;;;8.37;4.57;;;27.50;54.50;;;;;;4986952;28;20046;-70
2023/06/24 09:57:46;;;;;;;11.13;5.60;;;27.60;53.70;;;;;;4969220;28;20047;-69
2023/06/24 10:00:17;;;;;;;7.97;5.43;;;27.60;53.10;;;;;;4969961;28;20092;-69
2023/06/24 10:02:45;;;;;;;7.83;5.73;;;27.60;53.40;;;;;;4970463;28;20043;-69
2023/06/24 10:05:12;;;;;;;8.10;5.07;;;27.50;53.70;;;;;;4972390;28;20039;-69
2023/06/24 10:07:39;;;;;;;7.33;4.60;;;27.50;53.80;;;;;;4971554;28;20418;-69
2023/06/24 10:10:05;;;;;;;6.80;4.83;;;27.40;50.80;;;;;;4962604;28;20039;-69
2023/06/24 10:12:31;;;;;;;7.07;4.23;;;27.30;50.60;;;;;;4970218;28;20062;-69
2023/06/24 10:14:59;;;;;;;8.07;4.53;;;27.30;50.60;;;;;;4990641;28;20043;-70
2023/06/24 10:17:25;;;;;;;6.33;4.37;;;27.30;51.10;;;;;;4974572;28;20047;-70
2023/06/24 10:19:55;;;;;;;5.77;3.97;;;27.30;50.30;;;;;;4960092;28;20046;-69
2023/06/24 10:22:25;;;;;;;3.93;3.53;;;27.40;50.70;;;;;;4963765;28;20035;-71
2023/06/24 10:24:52;;;;;;;6.43;3.70;;;27.60;49.50;;;;;;4983487;28;20034;-71
2023/06/24 10:27:24;;;;;;;5.67;3.47;;;27.70;49.50;;;;;;4959850;28;20074;-71
2023/06/24 10:29:52;;;;;;;5.70;4.20;;;27.90;50.20;;;;;;4958390;28;20391;-72
2023/06/24 10:32:22;;;;;;;6.70;4.33;;;28.20;49.80;;;;;;4970136;28;20035;-72
2023/06/24 10:34:55;;;;;;;6.73;4.17;;;28.50;50.60;;;;;;4976019;28;20113;-71
2023/06/24 10:37:24;;;;;;;6.23;4.80;;;28.80;49.60;;;;;;4978384;28;20062;-71
2023/06/24 10:39:57;;;;;;;6.83;5.00;;;29.00;48.50;;;;;;4995006;28;20114;-71
2023/06/24 10:42:29;;;;;;;11.50;6.07;;;29.10;48.90;;;;;;4967021;28;20058;-71
2023/06/24 10:45:14;;;;;;;12.47;6.43;;;28.80;50.00;;;;;;4962528;28;20130;-71
2023/06/24 10:47:41;;;;;;;8.40;5.47;;;28.70;50.30;;;;;;4981983;28;20047;-71
2023/06/24 10:50:09;;;;;;;8.93;5.20;;;28.30;50.90;;;;;;4985148;28;20054;-71
2023/06/24 10:52:40;;;;;;;8.40;5.27;;;27.80;50.50;;;;;;4973236;28;20525;-71
2023/06/24 10:55:07;;;;;;;5.27;4.47;;;27.50;51.80;;;;;;4959253;28;20109;-71
2023/06/24 10:57:33;;;;;;;7.70;4.40;;;27.40;51.10;;;;;;4970339;28;20046;-71
2023/06/24 11:00:00;;;;;;;8.10;4.30;;;27.40;50.60;;;;;;4993195;28;20538;-71
2023/06/24 11:02:27;;;;;;;3.97;2.60;;;27.40;50.40;;;;;;4960717;28;20031;-71
2023/06/24 11:05:02;;;;;;;6.00;3.73;;;27.40;47.80;;;;;;4978705;28;20046;-71
2023/06/24 11:07:30;;;;;;;;;;;27.70;49.20;;;;;;4966359;28;20053;-71
2023/06/24 11:10:17;;;;;;;9.13;5.20;;;27.80;49.80;;;;;;4968769;28;19953;-71
2023/06/24 11:12:43;;;;;;;7.23;4.73;;;28.00;49.40;;;;;;4983903;28;20146;-71
2023/06/24 11:15:13;;;;;;;6.17;5.40;;;28.20;50.40;;;;;;4968591;28;20078;-71
2023/06/24 11:17:40;;;;;;;6.27;4.53;;;28.10;50.10;;;;;;4979072;28;20041;-71
2023/06/24 11:20:11;;;;;;;6.90;4.97;;;28.00;50.80;;;;;;4959894;28;20062;-71
2023/06/24 11:22:39;;;;;;;9.77;5.43;;;28.10;51.10;;;;;;4972336;28;20042;-71
2023/06/24 11:25:05;;;;;;;8.43;5.20;;;28.10;52.20;;;;;;4964049;28;20038;-71
2023/06/24 11:27:31;;;;;;;6.27;3.80;;;28.10;50.20;;;;;;4972942;28;20036;-71
2023/06/24 11:30:04;;;;;;;7.53;4.47;;;27.80;51.20;;;;;;4972801;28;20046;-71
2023/06/24 11:32:41;;;;;;;7.10;4.30;;;27.90;52.30;;;;;;4969791;28;20551;-71
2023/06/24 11:35:09;;;;;;;5.13;3.90;;;28.20;51.40;;;;;;4970433;28;20039;-71
2023/06/24 11:37:40;;;;;;;4.33;2.47;;;28.30;48.90;;;;;;4971448;28;20109;-71
2023/06/24 11:40:08;;;;;;;3.83;2.67;;;28.20;49.10;;;;;;4969662;28;20039;-71
2023/06/24 11:42:44;;;;;;;3.07;2.30;;;28.00;49.80;;;;;;4973259;28;20042;-71
2023/06/24 11:45:12;;;;;;;6.53;3.37;;;27.80;49.80;;;;;;4970988;28;20043;-71
2023/06/24 11:47:39;;;;;;;5.53;3.63;;;27.90;51.30;;;;;;4972910;28;20043;-70
2023/06/24 11:50:06;;;;;;;4.47;3.17;;;27.90;50.20;;;;;;4967694;28;20061;-71
2023/06/24 11:52:44;;;;;;;6.47;2.70;;;27.90;50.30;;;;;;4994588;28;20031;-71
2023/06/24 11:55:18;;;;;;;4.23;2.50;;;27.90;50.40;;;;;;4982737;28;20077;-71
2023/06/24 11:58:02;;;;;;;4.85;3.90;;;28.00;49.70;;;;;;4965957;28;20529;-71
2023/06/24 12:00:34;;;;;;;4.77;3.97;;;28.10;50.70;;;;;;4971327;28;20046;-72
2023/06/24 12:03:05;;;;;;;6.50;4.50;;;28.30;51.10;;;;;;4973853;28;20507;-72
2023/06/24 12:05:33;;;;;;;7.90;4.70;;;28.30;49.90;;;;;;4978708;28;20092;-72
2023/06/24 12:08:07;;;;;;;6.60;4.83;;;28.40;49.90;;;;;;4978747;28;20043;-71
2023/06/24 12:10:34;;;;;;;8.73;5.20;;;28.50;51.60;;;;;;4987978;28;20495;-72
2023/06/24 12:13:05;;;;;;;7.03;5.20;;;28.60;51.90;;;;;;4976464;28;20346;-72
2023/06/24 12:15:31;;;;;;;8.53;5.90;;;28.70;51.40;;;;;;4960513;28;20086;-73
2023/06/24 12:17:58;;;;;;;9.60;6.00;;;28.60;50.90;;;;;;4968765;28;20078;-72
2023/06/24 12:20:27;;;;;;;7.87;5.60;;;28.50;51.60;;;;;;4967499;28;20090;-72
2023/06/24 12:22:52;;;;;;;7.73;5.97;;;28.50;51.20;;;;;;4969540;28;20061;-72
2023/06/24 12:25:18;;;;;;;7.30;4.37;;;28.40;51.40;;;;;;4996301;28;20034;-74
2023/06/24 12:27:44;;;;;;;8.57;4.70;;;28.50;51.70;;;;;;4976311;28;20030;-72
2023/06/24 12:30:11;;;;;;;5.30;3.73;;;28.40;51.00;;;;;;4980114;28;20069;-72
2023/06/24 12:32:37;;;;;;;7.40;3.80;;;28.30;50.20;;;;;;4967528;28;20037;-73
2023/06/24 12:35:03;;;;;;;7.07;3.70;;;28.20;50.40;;;;;;4981849;28;20034;-73
2023/06/24 12:37:33;;;;;;;6.20;3.50;;;28.20;50.10;;;;;;4978866;28;20145;-72
2023/06/24 12:40:05;;;;;;;6.73;3.60;;;28.10;50.30;;;;;;4965169;28;20077;-72